Time;durP1;ratioP1;P1;durP2;ratioP2;P2;SDS_P1;SDS_P2;PMS_P1;PMS_P2;Temp;Humidity;BMP_temperature;BMP_pressure;BME280_temperature;BME280_humidity;BME280_pressure;Samples;Min_cycle;Max_cycle;Signal;HPM_P1;HPM_P2
2023/03/19 00:00:19;;;;;;;18.58;16.55;;;10.50;99.90;;;;;;5033791;28;20238;-75
2023/03/19 00:02:50;;;;;;;24.25;16.17;;;10.60;99.90;;;;;;5033751;28;20303;-74
2023/03/19 00:05:17;;;;;;;15.85;14.25;;;10.50;99.90;;;;;;5034363;28;20189;-75
2023/03/19 00:07:44;;;;;;;17.75;15.75;;;10.50;99.90;;;;;;5032886;28;20283;-75
2023/03/19 00:10:12;;;;;;;21.35;17.17;;;10.60;99.90;;;;;;5030719;28;20265;-74
2023/03/19 00:12:39;;;;;;;20.38;15.65;;;10.50;99.90;;;;;;5041032;28;20285;-75
2023/03/19 00:15:12;;;;;;;18.48;16.30;;;10.50;99.90;;;;;;5033351;28;20209;-76
2023/03/19 00:17:41;;;;;;;21.83;17.90;;;10.50;99.90;;;;;;5037288;28;20208;-75
2023/03/19 00:20:10;;;;;;;26.10;20.83;;;10.50;99.90;;;;;;5027581;28;20580;-73
2023/03/19 00:22:37;;;;;;;23.38;19.33;;;10.40;99.90;;;;;;5026943;28;20680;-75
2023/03/19 00:25:05;;;;;;;25.20;19.55;;;10.40;99.90;;;;;;5042106;28;20200;-75
2023/03/19 00:27:32;;;;;;;18.35;16.30;;;10.40;99.90;;;;;;5026592;28;20201;-75
2023/03/19 00:29:59;;;;;;;17.98;16.05;;;10.30;99.90;;;;;;5034774;28;20293;-74
2023/03/19 00:32:27;;;;;;;19.00;16.42;;;10.30;99.90;;;;;;5030779;28;20213;-75
2023/03/19 00:34:54;;;;;;;24.27;19.98;;;10.30;99.90;;;;;;5035191;28;20204;-75
2023/03/19 00:37:21;;;;;;;22.83;18.98;;;10.30;99.90;;;;;;5038142;28;20220;-75
2023/03/19 00:39:48;;;;;;;17.65;15.85;;;10.20;99.90;;;;;;5041342;28;20220;-73
2023/03/19 00:42:15;;;;;;;23.08;19.75;;;10.20;99.90;;;;;;5034304;28;20210;-75
2023/03/19 00:44:42;;;;;;;23.45;19.42;;;10.30;99.90;;;;;;5027954;28;20297;-75
2023/03/19 00:47:10;;;;;;;27.90;21.85;;;10.30;99.90;;;;;;5034895;28;20285;-76
2023/03/19 00:49:39;;;;;;;24.48;19.65;;;10.30;99.90;;;;;;5033698;28;20594;-76
2023/03/19 00:52:06;;;;;;;24.58;19.33;;;10.30;99.90;;;;;;5035364;28;20252;-74
2023/03/19 00:54:33;;;;;;;21.25;17.58;;;10.20;99.90;;;;;;5032481;28;20249;-76
2023/03/19 00:57:01;;;;;;;21.27;18.38;;;10.20;99.90;;;;;;5040295;28;20274;-75
2023/03/19 00:59:28;;;;;;;21.60;19.30;;;10.20;99.90;;;;;;5038264;28;20239;-76
2023/03/19 01:01:55;;;;;;;27.55;19.35;;;10.10;99.90;;;;;;5034195;28;20196;-75
2023/03/19 01:04:23;;;;;;;24.23;19.75;;;10.10;99.90;;;;;;5033348;28;20292;-75
2023/03/19 01:06:52;;;;;;;23.02;19.73;;;10.10;99.90;;;;;;5028132;28;20645;-74
2023/03/19 01:09:20;;;;;;;21.60;18.50;;;10.10;99.90;;;;;;5032774;28;20760;-75
2023/03/19 01:11:47;;;;;;;27.10;21.17;;;10.20;99.90;;;;;;5033879;28;20234;-75
2023/03/19 01:14:16;;;;;;;20.92;18.70;;;10.20;99.90;;;;;;5033553;28;20230;-74
2023/03/19 01:16:43;;;;;;;32.28;23.83;;;10.20;99.90;;;;;;5033488;28;20222;-74
2023/03/19 01:19:11;;;;;;;24.88;19.25;;;10.20;99.90;;;;;;5033623;28;21596;-75
2023/03/19 01:21:38;;;;;;;22.65;20.13;;;10.10;99.90;;;;;;5031128;28;20661;-75
2023/03/19 01:24:06;;;;;;;24.33;20.70;;;10.00;99.90;;;;;;5033966;28;20706;-74
2023/03/19 01:26:33;;;;;;;26.13;20.45;;;10.00;99.90;;;;;;5031067;28;20228;-76
2023/03/19 01:29:00;;;;;;;21.73;17.20;;;9.90;99.90;;;;;;5032904;28;20280;-75
2023/03/19 01:31:27;;;;;;;27.23;21.38;;;9.90;99.90;;;;;;5032087;28;20207;-75
2023/03/19 01:33:56;;;;;;;21.80;19.50;;;10.00;99.90;;;;;;5033252;28;20939;-76
2023/03/19 01:36:23;;;;;;;23.75;21.20;;;10.00;99.90;;;;;;5034531;28;20300;-75
2023/03/19 01:38:52;;;;;;;21.50;17.75;;;10.00;99.90;;;;;;5034281;28;20206;-74
2023/03/19 01:41:20;;;;;;;23.10;19.05;;;10.00;99.90;;;;;;5031241;28;20638;-75
2023/03/19 01:43:47;;;;;;;21.23;18.35;;;10.10;99.90;;;;;;5026206;28;20221;-77
2023/03/19 01:46:26;;;;;;;25.58;20.02;;;10.10;99.90;;;;;;5028247;28;20298;-76
2023/03/19 01:48:56;;;;;;;25.33;19.20;;;10.20;99.90;;;;;;5028451;28;20228;-75
2023/03/19 01:51:26;;;;;;;21.17;18.20;;;10.10;99.90;;;;;;5032955;28;20202;-75
2023/03/19 01:53:56;;;;;;;22.55;19.08;;;10.10;99.90;;;;;;5033388;28;20310;-77
2023/03/19 01:56:31;;;;;;;21.33;16.77;;;10.10;99.90;;;;;;5032692;28;20215;-73
2023/03/19 01:59:02;;;;;;;20.83;18.60;;;10.10;99.90;;;;;;5028985;28;20216;-75
2023/03/19 02:01:33;;;;;;;23.50;18.50;;;10.10;99.90;;;;;;5029119;28;20299;-75
2023/03/19 02:04:00;;;;;;;24.48;18.45;;;10.10;99.90;;;;;;5027434;28;20324;-75
2023/03/19 02:06:29;;;;;;;24.02;18.10;;;10.10;99.90;;;;;;5025452;28;20197;-75
2023/03/19 02:08:57;;;;;;;20.52;17.90;;;10.10;99.90;;;;;;5032637;28;20271;-74
2023/03/19 02:11:26;;;;;;;26.42;19.83;;;10.00;99.90;;;;;;5032516;28;20214;-75
2023/03/19 02:13:53;;;;;;;22.00;18.13;;;10.00;99.90;;;;;;5027203;28;20228;-75
2023/03/19 02:16:21;;;;;;;22.02;18.83;;;10.00;99.90;;;;;;5032799;28;20315;-75
2023/03/19 02:18:49;;;;;;;20.35;16.33;;;10.00;99.90;;;;;;5032768;28;20243;-74
2023/03/19 02:21:17;;;;;;;21.30;16.85;;;10.00;99.90;;;;;;5031481;28;20289;-76
2023/03/19 02:23:53;;;;;;;25.05;17.42;;;9.90;99.90;;;;;;5032841;28;20312;-74
2023/03/19 02:26:23;;;;;;;24.13;17.73;;;10.00;99.90;;;;;;5031936;28;20688;-76
2023/03/19 02:28:51;;;;;;;23.02;17.05;;;10.00;99.90;;;;;;5032778;28;20213;-75
2023/03/19 02:31:19;;;;;;;21.73;15.70;;;10.00;99.90;;;;;;5024567;28;20318;-75
2023/03/19 02:33:58;;;;;;;18.98;16.10;;;10.00;99.90;;;;;;5032540;28;20245;-75
2023/03/19 02:36:28;;;;;;;19.73;16.02;;;10.00;99.90;;;;;;5032956;28;20800;-76
2023/03/19 02:39:00;;;;;;;21.35;17.67;;;10.00;99.90;;;;;;5037253;28;20229;-75
2023/03/19 02:41:31;;;;;;;24.58;17.40;;;10.10;99.90;;;;;;5031811;28;20224;-75
2023/03/19 02:44:10;;;;;;;18.38;15.65;;;10.00;99.90;;;;;;5028342;28;20281;-75
2023/03/19 02:46:37;;;;;;;20.75;16.90;;;10.00;99.90;;;;;;5027564;28;20201;-74
2023/03/19 02:49:04;;;;;;;19.27;16.67;;;10.10;99.90;;;;;;5029188;28;20202;-74
2023/03/19 02:51:31;;;;;;;18.23;16.13;;;10.10;99.90;;;;;;5026977;28;20238;-73
2023/03/19 02:53:59;;;;;;;17.35;15.40;;;10.10;99.90;;;;;;5026621;28;20220;-76
2023/03/19 02:56:26;;;;;;;21.67;18.88;;;10.10;99.90;;;;;;5030391;28;20262;-74
2023/03/19 02:58:55;;;;;;;23.27;17.63;;;10.10;99.90;;;;;;5033008;28;20205;-75
2023/03/19 03:01:22;;;;;;;21.30;16.52;;;10.10;99.90;;;;;;5034127;28;20299;-74
2023/03/19 03:03:49;;;;;;;17.90;15.68;;;10.10;99.90;;;;;;5035921;28;20229;-73
2023/03/19 03:06:16;;;;;;;17.75;15.50;;;10.10;99.90;;;;;;5035271;28;20280;-74
2023/03/19 03:08:47;;;;;;;17.70;14.93;;;10.10;99.90;;;;;;5036677;28;20221;-75
2023/03/19 03:11:14;;;;;;;22.67;18.90;;;10.20;99.90;;;;;;5032931;28;21332;-74
2023/03/19 03:13:41;;;;;;;19.13;16.48;;;10.10;99.90;;;;;;5035360;28;20235;-74
2023/03/19 03:16:10;;;;;;;19.75;16.58;;;10.10;99.90;;;;;;5036976;28;20795;-75
2023/03/19 03:18:37;;;;;;;17.58;14.98;;;10.10;99.90;;;;;;5036485;28;20217;-75
2023/03/19 03:21:04;;;;;;;18.23;15.23;;;10.20;99.90;;;;;;5034425;28;20284;-74
2023/03/19 03:23:31;;;;;;;17.17;15.15;;;10.30;99.90;;;;;;5027882;28;20228;-73
2023/03/19 03:25:58;;;;;;;35.28;16.90;;;10.30;99.90;;;;;;5045078;28;20199;-74
2023/03/19 03:28:25;;;;;;;18.40;16.23;;;10.30;99.90;;;;;;5032415;28;20683;-74
2023/03/19 03:30:59;;;;;;;20.27;15.40;;;10.10;99.90;;;;;;5039541;28;20231;-72
2023/03/19 03:33:27;;;;;;;21.70;16.10;;;10.10;99.90;;;;;;5044633;28;20228;-74
2023/03/19 03:35:54;;;;;;;19.73;17.05;;;10.10;99.90;;;;;;5042522;28;20216;-71
2023/03/19 03:38:22;;;;;;;21.33;17.27;;;10.00;99.90;;;;;;5036409;28;20197;-74
2023/03/19 03:40:51;;;;;;;18.90;15.82;;;10.10;99.90;;;;;;5029793;28;20200;-74
2023/03/19 03:43:19;;;;;;;18.42;16.45;;;10.10;99.90;;;;;;5030681;28;20224;-74
2023/03/19 03:45:47;;;;;;;20.48;16.30;;;10.00;99.90;;;;;;5038782;28;20212;-73
2023/03/19 03:48:14;;;;;;;22.88;16.67;;;10.00;99.90;;;;;;5033614;28;20232;-75
2023/03/19 03:50:43;;;;;;;19.15;16.55;;;10.00;99.90;;;;;;5038372;28;20223;-73
2023/03/19 03:53:10;;;;;;;20.67;16.65;;;10.00;99.90;;;;;;5034133;28;20267;-74
2023/03/19 03:55:39;;;;;;;20.08;17.00;;;10.00;99.90;;;;;;5033806;28;20205;-73
2023/03/19 03:58:06;;;;;;;23.50;17.75;;;10.00;99.90;;;;;;5038668;28;20287;-74
2023/03/19 04:00:33;;;;;;;18.38;16.40;;;10.00;99.90;;;;;;5027549;28;20205;-74
2023/03/19 04:03:00;;;;;;;18.70;16.67;;;10.00;99.90;;;;;;5032423;28;20317;-74
2023/03/19 04:05:27;;;;;;;21.88;16.80;;;10.10;99.90;;;;;;5028928;28;20195;-73
2023/03/19 04:07:55;;;;;;;20.42;18.33;;;10.10;99.90;;;;;;5031214;28;20640;-74
2023/03/19 04:10:23;;;;;;;21.25;17.73;;;10.10;99.90;;;;;;5027707;28;20217;-74
2023/03/19 04:12:50;;;;;;;24.40;16.77;;;10.10;99.90;;;;;;5029192;28;20230;-74
2023/03/19 04:15:18;;;;;;;21.63;17.15;;;10.00;99.90;;;;;;5030426;28;20290;-74
2023/03/19 04:17:45;;;;;;;20.02;16.10;;;10.00;99.90;;;;;;5034732;28;20313;-74
2023/03/19 04:20:12;;;;;;;18.52;16.52;;;10.10;99.90;;;;;;5039201;28;20278;-74
2023/03/19 04:22:39;;;;;;;20.30;17.02;;;10.10;99.90;;;;;;5034885;28;20232;-74
2023/03/19 04:25:08;;;;;;;20.70;16.75;;;10.10;99.90;;;;;;5032619;28;20511;-74
2023/03/19 04:27:35;;;;;;;24.67;19.45;;;10.10;99.90;;;;;;5029146;28;20284;-74
2023/03/19 04:30:03;;;;;;;20.00;15.95;;;10.10;99.90;;;;;;5033723;28;20212;-74
2023/03/19 04:32:32;;;;;;;18.00;15.95;;;10.10;99.90;;;;;;5029906;28;20547;-74
2023/03/19 04:34:59;;;;;;;24.83;18.10;;;10.10;99.90;;;;;;5033803;28;20200;-74
2023/03/19 04:37:26;;;;;;;22.60;18.17;;;10.10;99.90;;;;;;5031935;28;20227;-75
2023/03/19 04:39:54;;;;;;;24.02;19.48;;;10.10;99.90;;;;;;5028769;28;20257;-75
2023/03/19 04:42:23;;;;;;;22.95;16.38;;;10.20;99.90;;;;;;5033233;28;20675;-75
2023/03/19 04:44:51;;;;;;;20.55;18.33;;;10.20;99.90;;;;;;5029154;28;20207;-75
2023/03/19 04:47:18;;;;;;;16.73;14.95;;;10.20;99.90;;;;;;5030228;28;20710;-74
2023/03/19 04:49:45;;;;;;;19.55;17.55;;;10.20;99.90;;;;;;5031208;28;20496;-74
2023/03/19 04:52:12;;;;;;;23.73;20.13;;;10.30;99.90;;;;;;5031775;28;20251;-74
2023/03/19 04:54:39;;;;;;;22.25;17.92;;;10.30;99.90;;;;;;5034278;28;20234;-73
2023/03/19 04:57:06;;;;;;;27.70;17.92;;;10.30;99.90;;;;;;5025868;28;20296;-75
2023/03/19 04:59:34;;;;;;;22.73;17.75;;;10.20;99.90;;;;;;5034010;28;20236;-74
2023/03/19 05:02:02;;;;;;;20.60;17.48;;;10.30;99.90;;;;;;5035354;28;20204;-74
2023/03/19 05:04:28;;;;;;;20.25;18.15;;;10.30;99.90;;;;;;5034488;28;20259;-74
2023/03/19 05:06:57;;;;;;;19.77;17.55;;;10.20;99.90;;;;;;5034734;28;20196;-74
2023/03/19 05:09:24;;;;;;;20.92;17.30;;;10.20;99.90;;;;;;5034838;28;20208;-75
2023/03/19 05:11:51;;;;;;;22.42;17.95;;;10.20;99.90;;;;;;5031908;28;20214;-70
2023/03/19 05:14:18;;;;;;;24.45;18.58;;;10.20;99.90;;;;;;5042143;28;20268;-73
2023/03/19 05:16:46;;;;;;;21.50;19.13;;;10.20;99.90;;;;;;5034617;28;20211;-73
2023/03/19 05:19:13;;;;;;;19.30;16.33;;;10.20;99.90;;;;;;5032652;28;20267;-73
2023/03/19 05:21:41;;;;;;;27.25;17.42;;;10.20;99.90;;;;;;5033054;28;20205;-73
2023/03/19 05:24:09;;;;;;;21.25;17.63;;;10.20;99.90;;;;;;5026779;28;20223;-73
2023/03/19 05:26:37;;;;;;;20.00;17.35;;;10.20;99.90;;;;;;5026123;28;20194;-74
2023/03/19 05:29:04;;;;;;;20.65;17.48;;;10.20;99.90;;;;;;5031583;28;20274;-74
2023/03/19 05:31:31;;;;;;;22.17;18.02;;;10.30;99.90;;;;;;5027241;28;20203;-74
2023/03/19 05:34:00;;;;;;;21.17;17.80;;;10.30;99.90;;;;;;5032079;28;20360;-72
2023/03/19 05:36:27;;;;;;;19.67;17.10;;;10.30;99.90;;;;;;5028761;28;20291;-73
2023/03/19 05:38:54;;;;;;;19.25;16.45;;;10.30;99.90;;;;;;5021112;28;20202;-73
2023/03/19 05:41:22;;;;;;;25.20;17.95;;;10.30;99.90;;;;;;5028311;28;20205;-73
2023/03/19 05:43:50;;;;;;;22.00;18.55;;;10.30;99.90;;;;;;5029305;28;20253;-73
2023/03/19 05:46:17;;;;;;;23.52;18.83;;;10.30;99.90;;;;;;5035354;28;20232;-74
2023/03/19 05:48:43;;;;;;;24.45;19.15;;;10.30;99.90;;;;;;5025378;28;20236;-73
2023/03/19 05:51:14;;;;;;;20.95;18.33;;;10.30;99.90;;;;;;5025519;28;20667;-73
2023/03/19 05:53:41;;;;;;;20.55;18.42;;;10.20;99.90;;;;;;5027967;28;20228;-72
2023/03/19 05:56:08;;;;;;;23.90;17.40;;;10.20;99.90;;;;;;5020885;28;20301;-73
2023/03/19 05:58:35;;;;;;;20.48;17.90;;;10.30;99.90;;;;;;5026714;28;20312;-72
2023/03/19 06:01:02;;;;;;;23.63;20.27;;;10.30;99.90;;;;;;5023380;28;20243;-72
2023/03/19 06:03:29;;;;;;;25.75;21.35;;;10.30;99.90;;;;;;5028843;28;20760;-74
2023/03/19 06:05:56;;;;;;;24.17;18.50;;;10.20;99.90;;;;;;5026937;28;20216;-73
2023/03/19 06:08:25;;;;;;;19.35;17.35;;;10.30;99.90;;;;;;5020993;28;20197;-73
2023/03/19 06:10:53;;;;;;;20.75;18.55;;;10.30;99.90;;;;;;5027880;28;20216;-73
2023/03/19 06:13:20;;;;;;;20.52;16.95;;;10.40;99.90;;;;;;5034466;28;20788;-74
2023/03/19 06:15:49;;;;;;;19.38;17.30;;;10.40;99.90;;;;;;5033403;28;20202;-73
2023/03/19 06:18:16;;;;;;;23.67;18.20;;;10.50;99.90;;;;;;5033258;28;20581;-74
2023/03/19 06:20:43;;;;;;;20.08;18.08;;;10.50;99.90;;;;;;5032274;28;20233;-74
2023/03/19 06:23:10;;;;;;;21.80;17.33;;;10.60;99.90;;;;;;5032432;28;20701;-73
2023/03/19 06:25:39;;;;;;;21.15;16.38;;;10.80;99.90;;;;;;5032405;28;20206;-74
2023/03/19 06:28:06;;;;;;;18.60;15.27;;;10.90;99.90;;;;;;5032950;28;20266;-74
2023/03/19 06:30:34;;;;;;;19.25;16.35;;;11.10;99.90;;;;;;5032195;28;20206;-74
2023/03/19 06:33:01;;;;;;;17.67;15.48;;;11.30;99.90;;;;;;5033387;28;20225;-73
2023/03/19 06:35:28;;;;;;;19.90;14.93;;;11.50;99.90;;;;;;5033818;28;20726;-74
2023/03/19 06:37:55;;;;;;;16.92;13.90;;;11.70;99.90;;;;;;5036669;28;20254;-74
2023/03/19 06:40:22;;;;;;;16.63;14.80;;;11.80;99.90;;;;;;5032953;28;20297;-73
2023/03/19 06:42:51;;;;;;;16.25;14.65;;;12.00;99.90;;;;;;5032065;28;20251;-72
2023/03/19 06:45:19;;;;;;;12.40;11.10;;;12.50;99.90;;;;;;5032641;28;20200;-72
2023/03/19 06:47:46;;;;;;;13.50;12.23;;;13.20;99.90;;;;;;5037454;28;20192;-73
2023/03/19 06:50:15;;;;;;;14.30;11.43;;;14.00;99.90;;;;;;5032673;28;20196;-73
2023/03/19 06:52:42;;;;;;;16.50;13.15;;;14.20;99.90;;;;;;5032578;28;20254;-73
2023/03/19 06:55:10;;;;;;;17.52;15.73;;;13.80;99.90;;;;;;5032875;28;20228;-74
2023/03/19 06:57:37;;;;;;;16.73;14.40;;;13.50;99.90;;;;;;5032127;28;20229;-73
2023/03/19 07:00:10;;;;;;;18.58;14.43;;;13.20;99.90;;;;;;5032156;28;20692;-73
2023/03/19 07:02:37;;;;;;;16.45;14.85;;;13.10;99.90;;;;;;5031736;28;20663;-72
2023/03/19 07:05:05;;;;;;;18.60;14.27;;;13.10;99.90;;;;;;5032468;28;20239;-74
2023/03/19 07:07:33;;;;;;;16.30;14.35;;;13.00;99.90;;;;;;5035662;28;20662;-74
2023/03/19 07:10:00;;;;;;;15.25;13.63;;;12.70;99.90;;;;;;5037644;28;20201;-73
2023/03/19 07:12:27;;;;;;;18.92;15.77;;;12.80;99.90;;;;;;5033265;28;20280;-72
2023/03/19 07:14:56;;;;;;;17.15;15.23;;;12.60;99.90;;;;;;5033130;28;20254;-72
2023/03/19 07:17:25;;;;;;;15.15;13.65;;;12.40;99.90;;;;;;5028453;28;20266;-73
2023/03/19 07:19:52;;;;;;;19.08;12.77;;;12.30;99.90;;;;;;5031657;28;20231;-73
2023/03/19 07:22:20;;;;;;;16.42;14.40;;;12.30;99.90;;;;;;5046077;28;20200;-73
2023/03/19 07:24:47;;;;;;;14.13;12.10;;;12.20;99.90;;;;;;5043295;28;20255;-71
2023/03/19 07:27:14;;;;;;;13.75;12.02;;;12.20;99.90;;;;;;5041510;28;20253;-74
2023/03/19 07:29:41;;;;;;;14.73;13.07;;;12.10;99.90;;;;;;5041032;28;20244;-72
2023/03/19 07:32:09;;;;;;;15.75;13.38;;;12.10;99.90;;;;;;5041372;28;20210;-73
2023/03/19 07:34:37;;;;;;;17.13;15.32;;;12.10;99.90;;;;;;5034333;28;20309;-74
2023/03/19 07:37:05;;;;;;;15.90;14.18;;;12.00;99.90;;;;;;5045959;28;20206;-75
2023/03/19 07:39:33;;;;;;;16.90;15.02;;;12.00;99.90;;;;;;5035162;28;20294;-71
2023/03/19 07:42:00;;;;;;;18.17;13.02;;;12.00;99.90;;;;;;5038987;28;20200;-72
2023/03/19 07:44:27;;;;;;;14.48;12.98;;;12.20;99.90;;;;;;5036254;28;20254;-73
2023/03/19 07:46:54;;;;;;;16.33;13.38;;;12.20;99.90;;;;;;5037110;28;20238;-74
2023/03/19 07:49:22;;;;;;;15.93;12.18;;;12.30;99.90;;;;;;5041855;28;20336;-74
2023/03/19 07:51:50;;;;;;;15.13;13.50;;;12.50;99.90;;;;;;5045331;28;20211;-74
2023/03/19 07:54:18;;;;;;;14.35;12.85;;;12.60;99.90;;;;;;5045012;28;20231;-72
2023/03/19 07:56:44;;;;;;;16.52;12.55;;;12.60;99.90;;;;;;5046737;28;20215;-73
2023/03/19 07:59:11;;;;;;;16.00;12.20;;;12.50;99.90;;;;;;5047745;28;20224;-74
2023/03/19 08:01:38;;;;;;;15.85;12.05;;;12.50;99.90;;;;;;5045036;28;20600;-73
2023/03/19 08:04:05;;;;;;;11.55;10.32;;;12.60;99.90;;;;;;5037016;28;20311;-73
2023/03/19 08:06:33;;;;;;;13.10;11.70;;;12.70;99.90;;;;;;5040774;28;20239;-74
2023/03/19 08:09:02;;;;;;;10.70;9.75;;;12.70;99.90;;;;;;5035341;28;20195;-72
2023/03/19 08:11:29;;;;;;;45.80;25.58;;;12.80;99.90;;;;;;5025596;28;20581;-73
2023/03/19 08:13:56;;;;;;;47.28;23.15;;;12.90;99.90;;;;;;5035265;28;20310;-74
2023/03/19 08:16:25;;;;;;;35.30;20.13;;;13.00;99.90;;;;;;5035732;28;20621;-73
2023/03/19 08:18:52;;;;;;;20.23;13.88;;;13.10;99.90;;;;;;5036774;28;20225;-75
2023/03/19 08:21:19;;;;;;;23.58;16.02;;;13.20;99.90;;;;;;5028722;28;20232;-74
2023/03/19 08:23:46;;;;;;;24.83;15.38;;;13.30;99.90;;;;;;5033121;28;20743;-74
2023/03/19 08:26:15;;;;;;;18.88;10.90;;;13.40;99.90;;;;;;5028981;28;20201;-74
2023/03/19 08:28:43;;;;;;;20.38;13.38;;;13.50;99.90;;;;;;5027066;28;20200;-74
2023/03/19 08:31:12;;;;;;;15.63;9.90;;;13.70;99.90;;;;;;5032691;28;20200;-75
2023/03/19 08:33:40;;;;;;;13.93;9.50;;;13.90;99.90;;;;;;5024616;28;20239;-71
2023/03/19 08:36:09;;;;;;;17.08;11.07;;;14.00;99.90;;;;;;5029700;28;20279;-72
2023/03/19 08:38:36;;;;;;;12.50;10.43;;;13.90;99.90;;;;;;5032415;28;20696;-73
2023/03/19 08:41:05;;;;;;;10.60;9.55;;;13.90;99.90;;;;;;5020896;28;20724;-74
2023/03/19 08:43:35;;;;;;;15.23;9.93;;;14.00;99.90;;;;;;5034989;28;20230;-72
2023/03/19 08:46:04;;;;;;;13.15;9.45;;;14.00;99.90;;;;;;5033798;28;20232;-73
2023/03/19 08:48:32;;;;;;;10.00;9.10;;;14.00;99.90;;;;;;5035578;28;20196;-74
2023/03/19 08:51:01;;;;;;;11.07;9.13;;;14.20;99.90;;;;;;5023689;28;20204;-72
2023/03/19 08:53:28;;;;;;;16.38;9.45;;;14.30;99.90;;;;;;5035688;28;20224;-77
2023/03/19 08:55:58;;;;;;;9.63;8.60;;;14.40;99.90;;;;;;5031623;28;20255;-73
2023/03/19 08:58:25;;;;;;;9.75;8.10;;;14.60;99.90;;;;;;5032299;28;20224;-73
2023/03/19 09:01:01;;;;;;;10.40;8.00;;;14.70;99.90;;;;;;5028252;28;20635;-73
2023/03/19 09:03:29;;;;;;;10.98;7.95;;;14.80;99.90;;;;;;5029565;28;20473;-74
2023/03/19 09:05:59;;;;;;;9.70;7.85;;;14.80;99.90;;;;;;5035311;28;20197;-76
2023/03/19 09:08:26;;;;;;;10.15;8.43;;;14.90;99.90;;;;;;5034921;28;20202;-75
2023/03/19 09:10:53;;;;;;;18.35;11.38;;;14.80;99.90;;;;;;5023604;28;20194;-74
2023/03/19 09:13:22;;;;;;;9.13;8.23;;;15.10;99.90;;;;;;5033449;28;20233;-74
2023/03/19 09:15:50;;;;;;;9.80;8.60;;;15.00;99.90;;;;;;5031126;28;20701;-73
2023/03/19 09:18:19;;;;;;;15.13;10.05;;;14.90;99.90;;;;;;5038011;28;20285;-74
2023/03/19 09:20:47;;;;;;;12.35;8.88;;;15.20;99.90;;;;;;5031198;28;20195;-74
2023/03/19 09:23:15;;;;;;;12.82;8.18;;;15.40;99.90;;;;;;5040404;28;20760;-73
2023/03/19 09:25:42;;;;;;;9.37;7.90;;;15.70;99.90;;;;;;5029434;28;20217;-72
2023/03/19 09:28:11;;;;;;;9.00;8.03;;;16.00;99.90;;;;;;5030997;28;20441;-76
2023/03/19 09:30:38;;;;;;;9.60;7.27;;;16.20;99.90;;;;;;5034661;28;20453;-73
2023/03/19 09:33:06;;;;;;;8.53;5.80;;;16.50;99.90;;;;;;5033798;28;20478;-74
2023/03/19 09:35:35;;;;;;;8.93;6.90;;;17.40;99.90;;;;;;5033358;28;20492;-73
2023/03/19 09:38:03;;;;;;;9.63;5.70;;;18.90;99.90;;;;;;5032682;28;20491;-71
2023/03/19 09:40:36;;;;;;;5.97;5.27;;;20.50;99.90;;;;;;5028234;28;20526;-72
2023/03/19 09:43:24;;;;;;;6.80;6.20;;;20.90;99.90;;;;;;5032660;28;20465;-75
2023/03/19 09:45:51;;;;;;;8.27;5.93;;;20.60;99.90;;;;;;5027195;28;20843;-75
2023/03/19 09:48:27;;;;;;;7.63;6.57;;;20.40;99.90;;;;;;5025264;28;20452;-74
2023/03/19 09:50:57;;;;;;;7.67;6.07;;;20.10;99.90;;;;;;5025503;28;20499;-76
2023/03/19 09:53:36;;;;;;;10.40;6.83;;;19.90;99.90;;;;;;5034488;28;20473;-75
2023/03/19 09:56:07;;;;;;;8.03;6.67;;;19.30;99.90;;;;;;5029451;28;20449;-75
2023/03/19 09:58:36;;;;;;;8.93;6.85;;;18.50;99.90;;;;;;5025475;28;20470;-75
2023/03/19 10:01:04;;;;;;;7.50;5.90;;;18.60;99.90;;;;;;5031139;28;20286;-76
2023/03/19 10:03:43;;;;;;;8.10;6.10;;;18.10;99.90;;;;;;5035069;28;20475;-76
2023/03/19 10:06:25;;;;;;;6.57;5.93;;;18.00;99.90;;;;;;5034833;28;20445;-75
2023/03/19 10:09:31;;;;;;;7.53;6.53;;;17.10;99.90;;;;;;5018722;28;20438;-75
2023/03/19 10:12:13;;;;;;;8.23;4.70;;;17.00;99.90;;;;;;5022609;28;20443;-77
2023/03/19 10:15:26;;;;;;;9.07;5.60;;;16.90;99.90;;;;;;5018939;28;20568;-75
2023/03/19 10:18:17;;;;;;;6.60;5.57;;;17.00;99.90;;;;;;4963729;28;20450;-74
2023/03/19 10:21:05;;;;;;;6.57;5.10;;;17.30;99.90;;;;;;5022999;28;20467;-77
2023/03/19 10:23:59;;;;;;;7.20;5.07;;;17.70;99.90;;;;;;5030763;28;20817;-74
2023/03/19 10:26:34;;;;;;;8.50;5.73;;;18.00;99.90;;;;;;5025066;28;20443;-75
2023/03/19 10:29:25;;;;;;;18.17;5.70;;;18.90;99.90;;;;;;5024687;28;20996;-76
2023/03/19 10:32:02;;;;;;;7.03;5.10;;;20.00;98.60;;;;;;5023829;28;20757;-73
2023/03/19 10:34:36;;;;;;;9.50;5.03;;;20.30;96.00;;;;;;5023825;28;20474;-74
2023/03/19 10:37:20;;;;;;;6.80;4.63;;;20.50;95.20;;;;;;5020903;28;20450;-74
2023/03/19 10:40:16;;;;;;;6.40;4.90;;;20.40;95.00;;;;;;5021198;28;20553;-74
2023/03/19 10:43:13;;;;;;;12.60;6.33;;;19.80;95.30;;;;;;5026062;28;20488;-78
2023/03/19 10:45:54;;;;;;;10.03;6.03;;;18.80;97.10;;;;;;5023085;28;20447;-77
2023/03/19 10:48:36;;;;;;;6.23;5.00;;;18.40;98.30;;;;;;5024007;28;20488;-79
2023/03/19 10:51:11;;;;;;;6.77;5.73;;;17.80;99.80;;;;;;5021580;28;20447;-76
2023/03/19 10:53:44;;;;;;;10.43;6.73;;;17.20;99.90;;;;;;5022644;28;20482;-75
2023/03/19 10:56:31;;;;;;;5.93;5.33;;;17.10;99.90;;;;;;5021188;28;20497;-74
2023/03/19 10:59:33;;;;;;;9.40;6.20;;;17.10;99.90;;;;;;5022827;28;20482;-77
2023/03/19 11:02:29;;;;;;;12.20;6.47;;;16.80;99.90;;;;;;5026962;28;20963;-77
2023/03/19 11:05:36;;;;;;;6.50;5.77;;;16.80;99.90;;;;;;5031571;28;20463;-78
2023/03/19 11:08:23;;;;;;;9.10;6.00;;;16.60;99.90;;;;;;5027725;28;20845;-76
2023/03/19 11:11:02;;;;;;;9.43;7.37;;;16.30;99.90;;;;;;5028101;28;20446;-77
2023/03/19 11:13:48;;;;;;;6.70;5.30;;;16.20;99.90;;;;;;5032589;28;20462;-78
2023/03/19 11:16:50;;;;;;;7.80;6.00;;;16.10;99.90;;;;;;5033629;28;20442;-75
2023/03/19 11:19:29;;;;;;;13.20;6.40;;;16.30;99.90;;;;;;5027939;28;20492;-77
2023/03/19 11:22:21;;;;;;;7.87;5.50;;;16.30;99.90;;;;;;5038252;28;20494;-76
2023/03/19 11:24:52;;;;;;;6.20;5.00;;;16.30;99.90;;;;;;5033155;28;20445;-76
2023/03/19 11:27:27;;;;;;;9.90;5.40;;;16.20;99.90;;;;;;5036819;28;20296;-77
2023/03/19 11:29:57;;;;;;;8.90;6.07;;;16.30;99.90;;;;;;5035557;28;20485;-75
2023/03/19 11:33:00;;;;;;;9.90;6.10;;;16.20;99.90;;;;;;5036448;28;20470;-76
2023/03/19 11:35:32;;;;;;;9.20;6.60;;;15.90;99.90;;;;;;4981669;28;20983;-76
2023/03/19 11:38:01;;;;;;;12.17;6.50;;;15.90;99.90;;;;;;5037587;28;20935;-73
2023/03/19 11:40:41;;;;;;;8.40;6.63;;;15.80;99.90;;;;;;5041725;28;20518;-78
2023/03/19 11:43:37;;;;;;;7.20;6.07;;;15.80;99.90;;;;;;5036324;28;20557;-77
2023/03/19 11:46:17;;;;;;;7.70;5.33;;;15.70;99.90;;;;;;5029924;28;20773;-76
2023/03/19 11:49:01;;;;;;;6.77;6.07;;;15.70;99.90;;;;;;5029203;28;20454;-76
2023/03/19 11:51:35;;;;;;;6.70;5.60;;;15.90;99.90;;;;;;5032864;28;20535;-77
2023/03/19 11:54:06;;;;;;;9.67;6.43;;;16.00;99.90;;;;;;5031436;28;20462;-76
2023/03/19 11:56:42;;;;;;;10.60;5.90;;;16.10;99.90;;;;;;5036023;28;20452;-76
2023/03/19 11:59:19;;;;;;;9.00;6.80;;;16.20;99.90;;;;;;5035452;28;20513;-74
2023/03/19 12:02:26;;;;;;;9.60;6.17;;;16.30;99.90;;;;;;5031880;28;20530;-74
2023/03/19 12:05:25;;;;;;;9.20;5.77;;;16.50;99.90;;;;;;5011287;28;20472;-74
2023/03/19 12:08:16;;;;;;;8.17;6.90;;;16.70;99.90;;;;;;5033449;28;20446;-73
2023/03/19 12:10:56;;;;;;;8.40;6.60;;;16.80;99.90;;;;;;5031779;28;20621;-72
2023/03/19 12:13:44;;;;;;;7.23;6.50;;;16.50;99.90;;;;;;5029725;28;20471;-72
2023/03/19 12:16:20;;;;;;;11.43;7.63;;;16.10;99.90;;;;;;5029374;28;20443;-73
2023/03/19 12:19:16;;;;;;;12.10;9.20;;;16.00;99.90;;;;;;5033113;28;20493;-73
2023/03/19 12:21:54;;;;;;;14.07;12.68;;;15.70;99.90;;;;;;5033434;28;20458;-72
2023/03/19 12:24:31;;;;;;;20.00;16.45;;;15.60;99.90;;;;;;5032246;28;20304;-73
2023/03/19 12:27:09;;;;;;;27.23;19.67;;;14.60;99.90;;;;;;5021010;28;20224;-75
2023/03/19 12:29:46;;;;;;;21.23;19.13;;;14.10;99.90;;;;;;5028105;28;20287;-72
2023/03/19 12:32:37;;;;;;;23.27;20.77;;;13.80;99.90;;;;;;5027572;28;20215;-73
2023/03/19 12:35:11;;;;;;;26.00;20.73;;;13.60;99.90;;;;;;5026251;28;20621;-73
2023/03/19 12:37:45;;;;;;;24.67;22.08;;;13.50;99.90;;;;;;5031342;28;20204;-74
2023/03/19 12:40:28;;;;;;;28.17;23.70;;;13.40;99.90;;;;;;5023756;28;20595;-74
2023/03/19 12:42:58;;;;;;;23.15;20.65;;;13.50;99.90;;;;;;5027097;28;20247;-74
2023/03/19 12:45:35;;;;;;;27.25;21.13;;;13.70;99.90;;;;;;5030934;28;20246;-74
2023/03/19 12:48:08;;;;;;;22.95;20.20;;;14.30;99.90;;;;;;5027753;28;20209;-75
2023/03/19 12:50:39;;;;;;;20.70;18.77;;;14.80;99.90;;;;;;5033745;28;20210;-75